Time;durP1;ratioP1;P1;durP2;ratioP2;P2;SDS_P1;SDS_P2;PMS_P1;PMS_P2;Temp;Humidity;BMP_temperature;BMP_pressure;BME280_temperature;BME280_humidity;BME280_pressure;Samples;Min_cycle;Max_cycle;Signal;HPM_P1;HPM_P2
2021/07/05 00:00:50;;;;;;;;;;;;;;;19.43;72.64;101624.06;5054118;28;19921;-68
2021/07/05 00:03:17;;;;;;;;;;;;;;;19.47;72.70;101620.25;5054272;28;19927;-68
2021/07/05 00:05:43;;;;;;;;;;;;;;;19.40;73.00;101628.75;5054038;28;20252;-69
2021/07/05 00:08:10;;;;;;;;;;;;;;;19.35;72.95;101624.69;5054054;28;19927;-69
2021/07/05 00:10:37;;;;;;;;;;;;;;;19.39;72.96;101624.44;5054245;28;19927;-70
2021/07/05 00:13:04;;;;;;;;;;;;;;;19.26;72.90;101627.19;5054438;28;19928;-69
2021/07/05 00:15:33;;;;;;;;;;;;;;;19.22;73.46;101621.31;5054399;28;20019;-69
2021/07/05 00:18:01;;;;;;;;;;;;;;;19.22;73.03;101629.25;5054065;28;19928;-69
2021/07/05 00:20:28;;;;;;;;;;;;;;;19.25;73.14;101626.34;5054243;28;19971;-69
2021/07/05 00:22:55;;;;;;;;;;;;;;;19.23;72.89;101627.44;5053563;28;19924;-69
2021/07/05 00:25:22;;;;;;;;;;;;;;;19.33;72.75;101618.66;5054265;28;19921;-69
2021/07/05 00:27:49;;;;;;;;;;;;;;;19.22;73.23;101625.75;5053508;28;19921;-69
2021/07/05 00:30:17;;;;;;;;;;;;;;;19.23;72.99;101625.63;5054072;28;19932;-69
2021/07/05 00:32:45;;;;;;;;;;;;;;;19.32;72.58;101634.66;5053766;28;19947;-69
2021/07/05 00:35:12;;;;;;;;;;;;;;;19.25;72.96;101626.34;5054097;28;20314;-69
2021/07/05 00:37:39;;;;;;;;;;;;;;;19.27;72.36;101628.88;5053346;28;19921;-69
2021/07/05 00:40:07;;;;;;;;;;;;;;;19.30;72.54;101626.00;5053879;28;19920;-69
2021/07/05 00:42:34;;;;;;;;;;;;;;;19.19;72.57;101632.13;5053908;28;19920;-69
2021/07/05 00:45:00;;;;;;;;;;;;;;;19.21;72.63;101635.44;5053801;28;19920;-69
2021/07/05 00:47:27;;;;;;;;;;;;;;;19.08;72.45;101637.38;5053496;28;19921;-69
2021/07/05 00:49:55;;;;;;;;;;;;;;;19.07;72.39;101628.63;5053035;28;19920;-69
2021/07/05 00:52:21;;;;;;;;;;;;;;;19.04;72.98;101633.31;5053703;28;19921;-69
2021/07/05 00:54:48;;;;;;;;;;;;;;;19.13;72.51;101641.31;5053163;28;19927;-69
2021/07/05 00:57:21;;;;;;;;;;;;;;;18.95;72.59;101634.00;5053593;28;20022;-69
2021/07/05 00:59:49;;;;;;;;;;;;;;;18.92;73.14;101630.63;5052952;28;19927;-69
2021/07/05 01:02:15;;;;;;;;;;;;;;;18.87;73.76;101635.41;5053422;28;19927;-69
2021/07/05 01:04:42;;;;;;;;;;;;;;;18.83;73.45;101641.03;5053163;28;19920;-69
2021/07/05 01:07:10;;;;;;;;;;;;;;;18.90;72.92;101637.81;5053414;28;19920;-69
2021/07/05 01:09:37;;;;;;;;;;;;;;;18.86;72.91;101639.03;5052770;28;19920;-69
2021/07/05 01:12:04;;;;;;;;;;;;;;;18.88;72.69;101637.13;5052969;28;20379;-68
2021/07/05 01:14:31;;;;;;;;;;;;;;;18.85;72.82;101639.13;5053324;28;19921;-68
2021/07/05 01:16:57;;;;;;;;;;;;;;;18.96;71.69;101638.31;5053001;28;19944;-69
2021/07/05 01:19:24;;;;;;;;;;;;;;;18.99;71.54;101635.44;5052919;28;19921;-69
2021/07/05 01:21:52;;;;;;;;;;;;;;;19.01;72.08;101634.38;5052907;28;19921;-70
2021/07/05 01:24:19;;;;;;;;;;;;;;;19.12;70.88;101637.00;5052736;28;19920;-69
2021/07/05 01:26:46;;;;;;;;;;;;;;;18.98;71.50;101631.94;5052778;28;19921;-69
2021/07/05 01:29:13;;;;;;;;;;;;;;;18.96;70.72;101640.94;5052769;28;19928;-69
2021/07/05 01:31:39;;;;;;;;;;;;;;;19.08;70.17;101640.00;5052803;28;19921;-69
2021/07/05 01:34:06;;;;;;;;;;;;;;;19.11;70.37;101640.63;5052577;28;20390;-70
2021/07/05 01:36:32;;;;;;;;;;;;;;;19.03;71.20;101650.06;5052956;28;19921;-69
2021/07/05 01:39:00;;;;;;;;;;;;;;;18.97;71.05;101648.75;5052776;28;20039;-70
2021/07/05 01:41:27;;;;;;;;;;;;;;;18.88;72.33;101649.44;5052829;28;19942;-69
2021/07/05 01:43:54;;;;;;;;;;;;;;;18.97;71.42;101653.19;5052267;28;19924;-70
2021/07/05 01:46:20;;;;;;;;;;;;;;;18.84;72.85;101655.91;5052573;28;19927;-70
2021/07/05 01:48:47;;;;;;;;;;;;;;;18.83;72.29;101657.72;5052303;28;19920;-69
2021/07/05 01:51:14;;;;;;;;;;;;;;;18.75;72.55;101652.16;5052835;28;19932;-69
2021/07/05 01:53:40;;;;;;;;;;;;;;;18.79;72.84;101655.41;5052104;28;20399;-70
2021/07/05 01:56:08;;;;;;;;;;;;;;;18.74;72.72;101654.91;5052379;28;19927;-69
2021/07/05 01:58:35;;;;;;;;;;;;;;;18.71;72.49;101654.16;5052288;28;19943;-69
2021/07/05 02:01:02;;;;;;;;;;;;;;;18.78;72.37;101644.03;5052375;28;19920;-69
2021/07/05 02:03:28;;;;;;;;;;;;;;;18.79;73.01;101656.25;5052783;28;20452;-69
2021/07/05 02:05:55;;;;;;;;;;;;;;;18.81;72.69;101649.06;5058846;28;19936;-69
2021/07/05 02:08:22;;;;;;;;;;;;;;;18.95;71.76;101652.44;5058945;28;20379;-69
2021/07/05 02:10:51;;;;;;;;;;;;;;;18.89;72.59;101651.97;5058975;28;19920;-69
2021/07/05 02:13:20;;;;;;;;;;;;;;;18.93;72.13;101647.28;5058849;28;20329;-69
2021/07/05 02:15:47;;;;;;;;;;;;;;;18.93;72.61;101648.16;5058566;28;19921;-69
2021/07/05 02:18:14;;;;;;;;;;;;;;;19.03;72.07;101645.63;5059118;28;19921;-69
2021/07/05 02:20:41;;;;;;;;;;;;;;;18.92;73.10;101648.25;5058612;28;20299;-69
2021/07/05 02:23:09;;;;;;;;;;;;;;;19.05;72.35;101646.34;5059154;28;19921;-69
2021/07/05 02:25:37;;;;;;;;;;;;;;;19.19;71.72;101645.31;5058577;28;19920;-69
2021/07/05 02:28:06;;;;;;;;;;;;;;;19.34;70.93;101646.75;5058759;28;19928;-70
2021/07/05 02:30:34;;;;;;;;;;;;;;;19.26;70.70;101649.13;5058798;28;20416;-69
2021/07/05 02:33:01;;;;;;;;;;;;;;;19.27;71.10;101650.81;5058732;28;20264;-69
2021/07/05 02:35:29;;;;;;;;;;;;;;;19.46;69.87;101646.75;5058754;28;20274;-69
2021/07/05 02:37:56;;;;;;;;;;;;;;;19.58;70.36;101648.44;5058454;28;19925;-69
2021/07/05 02:40:24;;;;;;;;;;;;;;;19.52;71.04;101646.25;5058819;28;20026;-69
2021/07/05 02:42:51;;;;;;;;;;;;;;;19.63;70.10;101648.91;5058459;28;19920;-69
2021/07/05 02:45:22;;;;;;;;;;;;;;;19.71;69.45;101646.53;5058838;28;19921;-69
2021/07/05 02:47:50;;;;;;;;;;;;;;;19.87;68.79;101650.56;5058751;28;19920;-69
2021/07/05 02:50:16;;;;;;;;;;;;;;;19.89;68.37;101641.56;5058393;28;20294;-70
2021/07/05 02:52:43;;;;;;;;;;;;;;;20.15;67.44;101652.66;5058344;28;19920;-69
2021/07/05 02:55:10;;;;;;;;;;;;;;;20.26;67.00;101643.00;5058784;28;19920;-69
2021/07/05 02:57:37;;;;;;;;;;;;;;;20.37;66.94;101643.81;5058261;28;19928;-69
2021/07/05 03:00:09;;;;;;;;;;;;;;;20.38;67.36;101645.50;5058769;28;19921;-69
2021/07/05 03:02:35;;;;;;;;;;;;;;;20.28;68.67;101649.03;5058277;28;20267;-69
2021/07/05 03:05:04;;;;;;;;;;;;;;;20.46;66.91;101647.50;5058335;28;19928;-69
2021/07/05 03:07:31;;;;;;;;;;;;;;;20.35;67.81;101652.84;5058777;28;19920;-69
2021/07/05 03:09:57;;;;;;;;;;;;;;;20.44;67.19;101652.91;5058491;28;19921;-69
2021/07/05 03:12:24;;;;;;;;;;;;;;;20.52;66.84;101659.38;5058214;28;19920;-69
2021/07/05 03:14:50;;;;;;;;;;;;;;;20.56;67.20;101652.91;5057971;28;20287;-69
2021/07/05 03:17:17;;;;;;;;;;;;;;;20.79;65.97;101656.25;5054070;28;19927;-69
2021/07/05 03:19:44;;;;;;;;;;;;;;;20.73;66.07;101667.34;5055195;28;19920;-69
2021/07/05 03:22:13;;;;;;;;;;;;;;;20.89;65.34;101657.16;5055366;28;19920;-69
2021/07/05 03:24:39;;;;;;;;;;;;;;;20.97;65.63;101660.00;5054949;28;20007;-69
2021/07/05 03:27:06;;;;;;;;;;;;;;;21.08;65.47;101654.63;5055071;28;19928;-69
2021/07/05 03:29:33;;;;;;;;;;;;;;;21.16;63.90;101658.41;5055270;28;19921;-69
2021/07/05 03:32:00;;;;;;;;;;;;;;;21.30;61.43;101650.97;5055294;28;19920;-69
2021/07/05 03:34:26;;;;;;;;;;;;;;;21.39;61.88;101654.66;5054920;28;20379;-69
2021/07/05 03:36:53;;;;;;;;;;;;;;;21.47;61.36;101662.75;5054439;28;19968;-69
2021/07/05 03:39:21;;;;;;;;;;;;;;;21.64;61.02;101663.13;5055121;28;19920;-69
2021/07/05 03:41:47;;;;;;;;;;;;;;;21.70;60.74;101659.94;5054867;28;19921;-69
2021/07/05 03:44:14;;;;;;;;;;;;;;;21.73;60.63;101657.88;5054651;28;19920;-69
2021/07/05 03:46:41;;;;;;;;;;;;;;;21.76;62.46;101664.69;5054332;28;20406;-69
2021/07/05 03:49:07;;;;;;;;;;;;;;;21.65;63.67;101654.19;5054612;28;19920;-69
2021/07/05 03:51:34;;;;;;;;;;;;;;;21.73;60.17;101663.16;5054634;28;19921;-69
2021/07/05 03:54:00;;;;;;;;;;;;;;;21.95;59.12;101651.47;5054877;28;19920;-69
2021/07/05 03:56:28;;;;;;;;;;;;;;;22.01;60.28;101663.34;5054534;28;20394;-69
2021/07/05 03:58:55;;;;;;;;;;;;;;;22.04;59.82;101655.13;5054495;28;20302;-69
2021/07/05 04:01:22;;;;;;;;;;;;;;;21.94;61.19;101662.22;5054324;28;19921;-69
2021/07/05 04:03:48;;;;;;;;;;;;;;;21.93;60.91;101650.78;5054345;28;19920;-69
2021/07/05 04:06:15;;;;;;;;;;;;;;;21.97;60.72;101654.00;5054549;28;19931;-69
2021/07/05 04:08:42;;;;;;;;;;;;;;;22.10;59.66;101648.44;5054045;28;19921;-69
2021/07/05 04:11:08;;;;;;;;;;;;;;;21.92;61.69;101657.06;5054490;28;19921;-69
2021/07/05 04:13:36;;;;;;;;;;;;;;;21.91;60.20;101650.09;5054218;28;19924;-69
2021/07/05 04:16:03;;;;;;;;;;;;;;;21.81;62.26;101651.03;5053930;28;19921;-69
2021/07/05 04:18:30;;;;;;;;;;;;;;;21.80;61.60;101652.84;5054362;28;19920;-69
2021/07/05 04:20:56;;;;;;;;;;;;;;;21.84;62.08;101651.59;5053813;28;19927;-69
2021/07/05 04:23:24;;;;;;;;;;;;;;;22.06;60.37;101650.50;5054315;28;19920;-69
2021/07/05 04:25:51;;;;;;;;;;;;;;;22.09;59.60;101649.41;5053459;28;20403;-69
2021/07/05 04:28:18;;;;;;;;;;;;;;;22.15;59.47;101646.22;5053872;28;19921;-69
2021/07/05 04:30:46;;;;;;;;;;;;;;;22.08;60.52;101645.09;5053627;28;19928;-69
2021/07/05 04:33:12;;;;;;;;;;;;;;;22.39;57.40;101640.53;5054038;28;19921;-69
2021/07/05 04:35:39;;;;;;;;;;;;;;;22.54;57.98;101640.94;5053813;28;19924;-69
2021/07/05 04:38:06;;;;;;;;;;;;;;;22.55;58.16;101646.09;5053599;28;19931;-69
2021/07/05 04:40:34;;;;;;;;;;;;;;;22.80;57.05;101649.97;5053999;28;19927;-69
2021/07/05 04:43:01;;;;;;;;;;;;;;;22.99;57.75;101646.47;5053943;28;19920;-69
2021/07/05 04:45:29;;;;;;;;;;;;;;;23.19;55.66;101649.88;5053767;28;19928;-69
2021/07/05 04:47:58;;;;;;;;;;;;;;;23.33;55.52;101653.06;5053398;28;19998;-70
2021/07/05 04:50:25;;;;;;;;;;;;;;;23.44;55.21;101652.88;5053434;28;19920;-67
2021/07/05 04:52:51;;;;;;;;;;;;;;;23.57;54.31;101645.41;5053482;28;20019;-68
2021/07/05 04:55:19;;;;;;;;;;;;;;;23.75;55.07;101649.97;5053279;28;20366;-68
2021/07/05 04:57:46;;;;;;;;;;;;;;;23.83;54.33;101642.06;5053234;28;19924;-67
2021/07/05 05:00:15;;;;;;;;;;;;;;;23.97;52.36;101644.22;5053621;28;19921;-67
2021/07/05 05:02:42;;;;;;;;;;;;;;;24.10;52.02;101657.97;5052989;28;20282;-68
2021/07/05 05:05:11;;;;;;;;;;;;;;;24.23;52.46;101644.31;5053405;28;19921;-70
2021/07/05 05:07:39;;;;;;;;;;;;;;;24.37;52.10;101650.91;5053139;28;19921;-68
2021/07/05 05:10:06;;;;;;;;;;;;;;;24.52;51.90;101643.25;5053336;28;19924;-67
2021/07/05 05:12:33;;;;;;;;;;;;;;;24.65;52.21;101637.53;5053380;28;19927;-68
2021/07/05 05:14:59;;;;;;;;;;;;;;;24.65;51.54;101645.50;5052654;28;19931;-67
2021/07/05 05:17:26;;;;;;;;;;;;;;;24.67;52.44;101644.38;5053221;28;19924;-67
2021/07/05 05:19:53;;;;;;;;;;;;;;;24.60;51.72;101645.13;5052614;28;19920;-68
2021/07/05 05:22:21;;;;;;;;;;;;;;;24.82;50.46;101641.16;5052870;28;19920;-68
2021/07/05 05:24:47;;;;;;;;;;;;;;;24.91;51.28;101649.00;5052521;28;20359;-67
2021/07/05 05:27:15;;;;;;;;;;;;;;;25.02;51.36;101645.25;5052608;28;19974;-68
2021/07/05 05:29:41;;;;;;;;;;;;;;;25.14;49.95;101649.31;5052865;28;19920;-66
2021/07/05 05:32:08;;;;;;;;;;;;;;;25.11;50.25;101640.81;5052658;28;19928;-67
2021/07/05 05:34:35;;;;;;;;;;;;;;;25.23;49.45;101644.03;5052913;28;19921;-67
2021/07/05 05:37:01;;;;;;;;;;;;;;;25.37;49.97;101646.13;5052865;28;19920;-67
2021/07/05 05:39:30;;;;;;;;;;;;;;;25.45;49.08;101648.00;5051896;28;19927;-67
2021/07/05 05:41:56;;;;;;;;;;;;;;;25.46;48.55;101645.19;5052326;28;19921;-68
2021/07/05 05:44:23;;;;;;;;;;;;;;;25.50;49.22;101643.84;5052717;28;19921;-67
2021/07/05 05:46:50;;;;;;;;;;;;;;;25.61;48.63;101648.03;5052114;28;19934;-67
2021/07/05 05:49:16;;;;;;;;;;;;;;;25.71;49.85;101647.91;5052349;28;20394;-67
2021/07/05 05:51:43;;;;;;;;;;;;;;;25.70;48.37;101643.59;5052481;28;19921;-66
2021/07/05 05:54:10;;;;;;;;;;;;;;;25.84;49.09;101633.16;5052407;28;19921;-66
2021/07/05 05:56:40;;;;;;;;;;;;;;;25.89;48.84;101639.81;5052305;28;19921;-67
2021/07/05 05:59:08;;;;;;;;;;;;;;;25.98;48.01;101637.00;5052822;28;19927;-66
2021/07/05 06:01:35;;;;;;;;;;;;;;;25.97;48.31;101638.03;5052458;28;20003;-66
2021/07/05 06:04:02;;;;;;;;;;;;;;;26.00;48.40;101643.03;5052637;28;19928;-67
2021/07/05 06:06:29;;;;;;;;;;;;;;;26.06;47.59;101631.69;5052554;28;19921;-67
2021/07/05 06:08:55;;;;;;;;;;;;;;;26.22;48.23;101641.53;5052230;28;19924;-67
2021/07/05 06:11:22;;;;;;;;;;;;;;;26.29;47.46;101641.72;5052174;28;19921;-67
2021/07/05 06:13:50;;;;;;;;;;;;;;;26.24;45.05;101644.88;5051914;28;19927;-66
2021/07/05 06:16:17;;;;;;;;;;;;;;;26.10;47.68;101642.03;5052120;28;19921;-66
2021/07/05 06:18:44;;;;;;;;;;;;;;;26.16;50.22;101641.38;5051967;28;19921;-67
2021/07/05 06:21:10;;;;;;;;;;;;;;;26.23;46.71;101642.34;5052495;28;19931;-67
2021/07/05 06:23:37;;;;;;;;;;;;;;;26.28;46.02;101643.56;5051766;28;19921;-66
2021/07/05 06:26:05;;;;;;;;;;;;;;;26.37;45.85;101638.22;5052058;28;20294;-66
2021/07/05 06:28:33;;;;;;;;;;;;;;;26.45;46.59;101638.22;5052065;28;19921;-67
2021/07/05 06:31:01;;;;;;;;;;;;;;;26.39;43.67;101642.38;5051976;28;19974;-67
2021/07/05 06:33:28;;;;;;;;;;;;;;;26.54;44.13;101639.91;5052335;28;19921;-66
2021/07/05 06:35:55;;;;;;;;;;;;;;;26.39;47.74;101638.88;5051718;28;19925;-67
2021/07/05 06:38:22;;;;;;;;;;;;;;;26.59;45.69;101632.25;5052168;28;19942;-68
2021/07/05 06:40:52;;;;;;;;;;;;;;;26.45;46.91;101633.69;5052018;28;19920;-68
2021/07/05 06:43:18;;;;;;;;;;;;;;;26.63;44.60;101638.88;5051967;28;19920;-68
2021/07/05 06:45:45;;;;;;;;;;;;;;;26.69;43.97;101637.38;5051627;28;19935;-68
2021/07/05 06:48:13;;;;;;;;;;;;;;;26.75;44.19;101638.56;5051923;28;19921;-68
2021/07/05 06:50:40;;;;;;;;;;;;;;;26.82;42.07;101637.72;5053017;28;19921;-68
2021/07/05 06:53:07;;;;;;;;;;;;;;;27.04;43.66;101646.81;5055950;28;19925;-68
2021/07/05 06:55:34;;;;;;;;;;;;;;;27.29;43.26;101644.13;5055924;28;19920;-68
2021/07/05 06:58:00;;;;;;;;;;;;;;;27.65;43.04;101647.13;5055503;28;19930;-68
2021/07/05 07:00:28;;;;;;;;;;;;;;;28.10;42.15;101636.66;5055670;28;19932;-69
2021/07/05 07:02:55;;;;;;;;;;;;;;;28.31;39.97;101641.34;5055561;28;19925;-67
2021/07/05 07:05:23;;;;;;;;;;;;;;;28.57;38.03;101641.00;5055264;28;19928;-68
2021/07/05 07:07:51;;;;;;;;;;;;;;;28.93;41.13;101641.16;5055086;28;20279;-68
2021/07/05 07:10:18;;;;;;;;;;;;;;;29.18;36.90;101636.34;5055343;28;20379;-67
2021/07/05 07:12:48;;;;;;;;;;;;;;;29.37;38.46;101648.34;5055276;28;19920;-66
2021/07/05 07:15:16;;;;;;;;;;;;;;;29.74;38.29;101638.50;5055570;28;20401;-66
2021/07/05 07:17:46;;;;;;;;;;;;;;;30.04;38.00;101636.53;5054909;28;20291;-66
2021/07/05 07:20:13;;;;;;;;;;;;;;;29.97;35.73;101635.66;5055541;28;19925;-66
2021/07/05 07:22:42;;;;;;;;;;;;;;;30.34;36.89;101637.28;5054891;28;19920;-66
2021/07/05 07:25:10;;;;;;;;;;;;;;;30.29;35.32;101633.47;5055281;28;19921;-66
2021/07/05 07:27:37;;;;;;;;;;;;;;;30.91;34.75;101627.38;5055001;28;19924;-66
2021/07/05 07:30:04;;;;;;;;;;;;;;;30.95;36.68;101627.78;5054925;28;19921;-66
2021/07/05 07:32:30;;;;;;;;;;;;;;;31.32;34.22;101628.41;5054914;28;19927;-66
2021/07/05 07:34:57;;;;;;;;;;;;;;;31.34;34.00;101635.22;5054958;28;20002;-66
2021/07/05 07:37:23;;;;;;;;;;;;;;;31.36;33.42;101635.84;5055047;28;19921;-66
2021/07/05 07:39:57;;;;;;;;;;;;;;;31.35;34.19;101626.13;5054532;28;19927;-66
2021/07/05 07:42:23;;;;;;;;;;;;;;;31.75;31.91;101628.13;5055006;28;19925;-67
2021/07/05 07:44:50;;;;;;;;;;;;;;;31.81;32.23;101625.47;5054457;28;19928;-66
2021/07/05 07:47:17;;;;;;;;;;;;;;;32.67;32.82;101630.06;5054744;28;19959;-67
2021/07/05 07:49:43;;;;;;;;;;;;;;;32.38;30.16;101627.81;5054338;28;19921;-69
2021/07/05 07:52:10;;;;;;;;;;;;;;;33.55;30.68;101629.63;5054645;28;19928;-67
2021/07/05 07:54:52;;;;;;;;;;;;;;;33.46;32.44;101630.06;5130610;27;20347;-69
2021/07/05 07:57:19;;;;;;;;;;;;;;;33.79;31.48;101629.91;5131043;28;19930;-69
2021/07/05 07:59:46;;;;;;;;;;;;;;;33.96;29.15;101625.63;5130531;28;19935;-66
2021/07/05 08:02:12;;;;;;;;;;;;;;;33.72;30.36;101631.81;5130663;28;20420;-67
2021/07/05 08:04:39;;;;;;;;;;;;;;;33.45;30.10;101615.75;5130467;28;19924;-68
2021/07/05 08:07:06;;;;;;;;;;;;;;;33.98;30.29;101623.53;5130647;28;19930;-69
2021/07/05 08:09:33;;;;;;;;;;;;;;;33.56;29.10;101617.78;5130509;28;19928;-69
2021/07/05 08:12:01;;;;;;;;;;;;;;;34.23;29.99;101615.47;5130385;28;19923;-67
2021/07/05 08:14:28;;;;;;;;;;;;;;;33.78;30.79;101625.53;5130332;28;20400;-67
2021/07/05 08:16:54;;;;;;;;;;;;;;;33.71;30.08;101617.50;5130152;28;19961;-66
2021/07/05 08:19:21;;;;;;;;;;;;;;;34.36;28.77;101614.53;5130743;27;20285;-68
2021/07/05 08:21:48;;;;;;;;;;;;;;;34.69;29.24;101610.72;5130459;28;19924;-69
2021/07/05 08:24:14;;;;;;;;;;;;;;;35.03;27.55;101619.25;5130261;28;20297;-69
2021/07/05 08:26:41;;;;;;;;;;;;;;;34.19;27.26;101613.44;5130019;28;19931;-68
2021/07/05 08:29:09;;;;;;;;;;;;;;;34.72;27.74;101629.16;5130235;28;20498;-69
2021/07/05 08:31:36;;;;;;;;;;;;;;;34.82;27.43;101623.25;5130153;28;20027;-68
2021/07/05 08:34:02;;;;;;;;;;;;;;;35.06;27.50;101630.44;5130284;28;20135;-68
2021/07/05 08:36:29;;;;;;;;;;;;;;;34.82;27.71;101629.47;5130081;28;19930;-68
2021/07/05 08:38:55;;;;;;;;;;;;;;;33.29;27.73;101629.72;5129968;28;19924;-68
2021/07/05 08:41:22;;;;;;;;;;;;;;;33.25;27.54;101631.19;5130341;28;19931;-68
2021/07/05 08:43:49;;;;;;;;;;;;;;;34.64;26.54;101624.88;5129676;28;20296;-68
2021/07/05 08:46:20;;;;;;;;;;;;;;;34.79;25.56;101623.72;5129770;28;20316;-68
2021/07/05 08:48:47;;;;;;;;;;;;;;;35.10;26.65;101620.03;5129496;28;19931;-68
2021/07/05 08:51:15;;;;;;;;;;;;;;;35.20;26.07;101630.34;5129813;28;19931;-68
2021/07/05 08:53:42;;;;;;;;;;;;;;;35.54;25.80;101626.13;5129318;28;19923;-68
2021/07/05 08:56:09;;;;;;;;;;;;;;;35.13;27.88;101618.75;5129672;28;19924;-69
2021/07/05 08:58:36;;;;;;;;;;;;;;;35.88;26.24;101623.78;5129268;28;19930;-68
2021/07/05 09:01:03;;;;;;;;;;;;;;;36.47;25.96;101621.97;5129536;28;19927;-69
2021/07/05 09:03:31;;;;;;;;;;;;;;;37.06;26.42;101621.94;5129537;28;19930;-69
2021/07/05 09:06:07;;;;;;;;;;;;;;;36.60;26.25;101621.75;5117300;28;19924;-69
2021/07/05 09:08:38;;;;;;;;;;;;;;;36.00;27.13;101615.69;5115887;28;19927;-68
2021/07/05 09:11:05;;;;;;;;;;;;;;;36.33;24.44;101620.56;5116079;28;19928;-68
2021/07/05 09:13:31;;;;;;;;;;;;;;;34.59;24.50;101619.31;5115943;28;19924;-68
2021/07/05 09:15:59;;;;;;;;;;;;;;;35.18;24.21;101614.31;5115404;28;19930;-69
2021/07/05 09:18:26;;;;;;;;;;;;;;;35.61;24.71;101612.50;5115569;28;19924;-69
2021/07/05 09:20:57;;;;;;;;;;;;;;;35.25;25.35;101612.34;5115141;28;20409;-69
2021/07/05 09:23:24;;;;;;;;;;;;;;;35.32;26.31;101612.25;5115811;28;20011;-68
2021/07/05 09:25:52;;;;;;;;;;;;;;;35.25;26.84;101612.34;5115188;28;19939;-68
2021/07/05 09:28:20;;;;;;;;;;;;;;;35.44;24.80;101613.13;5115407;28;19924;-68
2021/07/05 09:30:49;;;;;;;;;;;;;;;35.82;26.00;101612.00;5115228;28;19924;-69
2021/07/05 09:33:20;;;;;;;;;;;;;;;34.76;26.08;101613.31;5115498;28;19930;-69
2021/07/05 09:35:47;;;;;;;;;;;;;;;34.55;25.22;101614.56;5115073;28;19924;-69
2021/07/05 09:38:27;;;;;;;;;;;;;;;34.30;26.11;101607.31;5115465;28;19934;-68
2021/07/05 09:40:53;;;;;;;;;;;;;;;33.77;26.12;101611.22;5114779;28;19934;-68
2021/07/05 09:43:24;;;;;;;;;;;;;;;34.31;26.57;101606.25;5115551;28;19924;-69
2021/07/05 09:45:51;;;;;;;;;;;;;;;35.83;25.39;101607.41;5115152;28;19924;-69
2021/07/05 09:48:18;;;;;;;;;;;;;;;36.10;24.37;101600.53;5115007;28;20424;-69
2021/07/05 09:50:46;;;;;;;;;;;;;;;34.65;24.65;101602.19;5113648;28;19935;-69
2021/07/05 09:53:27;;;;;;;;;;;;;;;34.85;24.55;101596.59;5114627;28;19930;-68
2021/07/05 09:55:54;;;;;;;;;;;;;;;36.32;24.03;101597.22;5114477;28;20385;-69
2021/07/05 09:58:30;;;;;;;;;;;;;;;37.04;23.32;101596.94;5114695;28;19924;-69
2021/07/05 10:00:56;;;;;;;;;;;;;;;37.39;23.03;101591.38;5114543;28;19931;-69
2021/07/05 10:03:33;;;;;;;;;;;;;;;38.22;23.01;101602.56;5114893;28;19950;-69
2021/07/05 10:06:14;;;;;;;;;;;;;;;36.78;23.41;101588.25;5114574;28;19969;-69
2021/07/05 10:08:42;;;;;;;;;;;;;;;37.57;22.30;101593.06;5114433;28;19928;-69
2021/07/05 10:11:10;;;;;;;;;;;;;;;37.04;23.51;101591.50;5114468;28;19924;-69
2021/07/05 10:13:36;;;;;;;;;;;;;;;37.81;21.89;101582.88;5114535;28;19967;-68
2021/07/05 10:16:05;;;;;;;;;;;;;;;37.99;21.16;101576.41;5114043;28;19931;-69
2021/07/05 10:18:32;;;;;;;;;;;;;;;38.20;22.15;101585.69;5114444;28;20052;-69
2021/07/05 10:20:59;;;;;;;;;;;;;;;37.27;22.57;101580.56;5114308;28;19924;-69
2021/07/05 10:23:26;;;;;;;;;;;;;;;36.90;22.26;101580.09;5114165;28;20400;-69
2021/07/05 10:25:54;;;;;;;;;;;;;;;37.04;22.69;101577.94;5114008;28;19970;-68
2021/07/05 10:28:21;;;;;;;;;;;;;;;37.14;22.51;101574.63;5114220;28;19923;-69
2021/07/05 10:30:49;;;;;;;;;;;;;;;36.68;22.73;101560.09;5113772;28;19924;-68
2021/07/05 10:33:16;;;;;;;;;;;;;;;37.09;22.34;101566.38;5114352;28;19955;-69
2021/07/05 10:35:43;;;;;;;;;;;;;;;35.71;23.20;101562.19;5114152;28;19933;-68
2021/07/05 10:38:13;;;;;;;;;;;;;;;36.74;22.64;101559.97;5114285;28;19930;-69
2021/07/05 10:40:40;;;;;;;;;;;;;;;36.25;22.60;101558.59;5113940;28;19946;-69
2021/07/05 10:43:09;;;;;;;;;;;;;;;35.46;23.43;101569.63;5114234;28;19930;-69
2021/07/05 10:45:40;;;;;;;;;;;;;;;36.83;21.88;101566.66;5113622;28;20389;-69
2021/07/05 10:48:06;;;;;;;;;;;;;;;37.89;20.89;101566.19;5114062;28;19930;-69
2021/07/05 10:50:53;;;;;;;;;;;;;;;37.26;21.37;101561.81;5113826;28;19923;-69
2021/07/05 10:53:38;;;;;;;;;;;;;;;38.41;20.65;101565.06;5106624;27;19924;-68
2021/07/05 10:56:24;;;;;;;;;;;;;;;39.10;21.38;101561.88;5113990;28;19924;-69
2021/07/05 10:58:52;;;;;;;;;;;;;;;38.59;21.05;101565.84;5113945;28;19923;-68
2021/07/05 11:01:35;;;;;;;;;;;;;;;38.73;21.69;101567.13;5113952;28;19924;-69
2021/07/05 11:04:17;;;;;;;;;;;;;;;38.75;19.41;101559.56;5113937;28;19939;-69
2021/07/05 11:06:44;;;;;;;;;;;;;;;39.36;19.83;101554.81;5113612;28;19930;-69
2021/07/05 11:09:11;;;;;;;;;;;;;;;39.26;20.26;101551.16;5113383;28;20290;-70
2021/07/05 11:11:45;;;;;;;;;;;;;;;36.31;20.93;101550.34;5113146;28;19923;-69
2021/07/05 11:14:15;;;;;;;;;;;;;;;36.39;22.01;101547.28;5113321;28;19935;-69
2021/07/05 11:16:58;;;;;;;;;;;;;;;37.80;21.54;101556.81;5113000;28;20316;-70
2021/07/05 11:19:36;;;;;;;;;;;;;;;38.55;20.74;101552.78;5110868;28;19928;-69
2021/07/05 11:22:05;;;;;;;;;;;;;;;39.72;20.81;101554.28;5113578;28;19924;-70
2021/07/05 11:24:39;;;;;;;;;;;;;;;39.18;19.57;101550.53;5113428;28;19923;-69
2021/07/05 11:27:26;;;;;;;;;;;;;;;39.33;19.68;101547.16;5113378;28;19924;-70
2021/07/05 11:29:54;;;;;;;;;;;;;;;40.33;19.61;101540.28;5078744;28;19923;-69
2021/07/05 11:32:33;;;;;;;;;;;;;;;39.69;19.58;101541.19;5113371;28;19924;-69
2021/07/05 11:35:00;;;;;;;;;;;;;;;39.49;18.59;101544.56;5113320;28;19923;-69
2021/07/05 11:37:34;;;;;;;;;;;;;;;39.26;18.27;101535.66;5113293;28;19924;-70
2021/07/05 11:40:01;;;;;;;;;;;;;;;38.63;19.87;101529.75;5113056;28;19924;-69
2021/07/05 11:42:46;;;;;;;;;;;;;;;37.49;21.93;101531.84;5112938;28;19931;-69
2021/07/05 11:45:14;;;;;;;;;;;;;;;38.06;20.82;101530.06;5112848;28;20022;-70
2021/07/05 11:47:43;;;;;;;;;;;;;;;39.04;19.53;101527.53;5112684;28;19934;-69
2021/07/05 11:50:29;;;;;;;;;;;;;;;39.75;19.43;101530.09;5112820;28;19931;-69
2021/07/05 11:52:57;;;;;;;;;;;;;;;39.62;19.17;101528.63;5112472;28;19966;-70
2021/07/05 11:55:24;;;;;;;;;;;;;;;41.35;18.24;101529.72;5113081;28;19924;-69
2021/07/05 11:57:51;;;;;;;;;;;;;;;41.92;17.66;101527.75;5112834;28;19930;-69
2021/07/05 12:00:23;;;;;;;;;;;;;;;39.91;17.92;101519.31;5113028;28;19945;-70
2021/07/05 12:03:00;;;;;;;;;;;;;;;39.66;19.21;101515.31;5112527;28;19931;-69
2021/07/05 12:05:27;;;;;;;;;;;;;;;39.58;19.33;101513.06;5113121;28;19950;-69
2021/07/05 12:08:00;;;;;;;;;;;;;;;38.93;20.57;101509.47;5112677;28;19930;-69
2021/07/05 12:10:28;;;;;;;;;;;;;;;36.80;21.49;101512.91;5112718;28;20374;-69
2021/07/05 12:12:54;;;;;;;;;;;;;;;38.13;20.96;101509.81;5112388;28;19927;-69
2021/07/05 12:15:23;;;;;;;;;;;;;;;39.14;21.82;101505.88;5112597;28;20337;-69
2021/07/05 12:17:56;;;;;;;;;;;;;;;39.70;20.79;101510.19;5112609;28;19924;-70
2021/07/05 12:20:23;;;;;;;;;;;;;;;41.19;18.13;101511.69;5112648;28;19923;-70
2021/07/05 12:22:50;;;;;;;;;;;;;;;40.36;18.81;101507.88;5112599;28;19930;-69
2021/07/05 12:25:16;;;;;;;;;;;;;;;40.16;19.06;101505.03;5112797;28;20022;-70
2021/07/05 12:27:43;;;;;;;;;;;;;;;38.70;19.30;101503.22;5112507;28;19931;-69
2021/07/05 12:30:12;;;;;;;;;;;;;;;40.01;19.01;101501.13;5112477;28;19924;-70
2021/07/05 12:32:40;;;;;;;;;;;;;;;41.67;17.90;101509.50;5112488;28;19924;-69
2021/07/05 12:35:07;;;;;;;;;;;;;;;41.45;19.03;101507.06;5112717;28;19985;-70
2021/07/05 12:37:36;;;;;;;;;;;;;;;40.61;17.56;101498.16;5112707;28;19936;-69
2021/07/05 12:40:07;;;;;;;;;;;;;;;38.86;19.01;101495.22;5113838;28;19924;-69